createdAt,value
2022-12-18T00:01:53.538Z,-5.30
2022-12-18T00:04:25.238Z,-5.40
2022-12-18T00:06:53.598Z,-5.40
2022-12-18T00:09:21.585Z,-5.40
2022-12-18T00:11:53.868Z,-5.40
2022-12-18T00:14:21.673Z,-5.40
2022-12-18T00:16:49.511Z,-5.50
2022-12-18T00:19:17.956Z,-5.50
2022-12-18T00:21:47.192Z,-5.50
2022-12-18T00:24:15.070Z,-5.50
2022-12-18T00:26:42.905Z,-5.50
2022-12-18T00:29:15.073Z,-5.50
2022-12-18T00:31:43.577Z,-5.50
2022-12-18T00:34:13.543Z,-5.50
2022-12-18T00:36:41.818Z,-5.50
2022-12-18T00:39:10.071Z,-5.50
2022-12-18T00:41:55.291Z,-5.60
2022-12-18T00:44:24.453Z,-5.60
2022-12-18T00:46:52.275Z,-5.70
2022-12-18T00:49:21.473Z,-5.70
2022-12-18T00:51:49.772Z,-5.60
2022-12-18T00:54:18.667Z,-5.60
2022-12-18T00:56:50.164Z,-5.60
2022-12-18T00:59:18.295Z,-5.60
2022-12-18T05:05:14.343Z,-5.60
2022-12-18T05:07:42.110Z,-5.60
2022-12-18T05:10:10.415Z,-5.60
2022-12-18T05:12:58.820Z,-5.70
2022-12-18T05:17:59.114Z,-5.60
2022-12-18T05:20:28.380Z,-5.70
2022-12-18T05:22:57.035Z,-5.70
2022-12-18T05:25:25.738Z,-5.70
2022-12-18T05:27:53.479Z,-5.70
2022-12-18T05:30:21.378Z,-5.70
2022-12-18T05:35:18.855Z,-5.70
2022-12-18T05:37:46.657Z,-5.70
2022-12-18T05:40:14.716Z,-5.70
2022-12-18T05:42:42.480Z,-5.70
2022-12-18T05:45:10.994Z,-5.80
2022-12-18T05:47:38.820Z,-5.80
2022-12-18T05:50:08.348Z,-5.80
2022-12-18T05:52:37.459Z,-5.80
2022-12-18T05:55:05.836Z,-5.80
2022-12-18T05:57:33.581Z,-5.80
2022-12-18T06:00:01.341Z,-5.80
2022-12-18T06:02:29.423Z,-5.80
2022-12-18T06:04:57.242Z,-5.80
2022-12-18T06:07:25.060Z,-5.80
2022-12-18T06:09:54.217Z,-5.70
2022-12-18T06:12:22.068Z,-5.70
2022-12-18T06:14:49.803Z,-5.70
2022-12-18T06:17:17.587Z,-5.70
2022-12-18T06:19:45.676Z,-5.70
2022-12-18T06:22:13.464Z,-5.60
2022-12-18T06:24:41.212Z,-5.60
2022-12-18T06:27:10.576Z,-5.60
2022-12-18T06:29:38.425Z,-5.60
2022-12-18T06:32:06.629Z,-5.60
2022-12-18T06:34:34.598Z,-5.60
2022-12-18T06:37:02.367Z,-5.60
2022-12-18T06:39:30.779Z,-5.60
2022-12-18T06:41:58.613Z,-5.60
2022-12-18T06:44:27.709Z,-5.60
2022-12-18T06:46:55.508Z,-5.60
2022-12-18T06:49:27.336Z,-5.60
2022-12-18T06:51:57.978Z,-5.60
2022-12-18T06:54:25.946Z,-5.60
2022-12-18T06:56:53.727Z,-5.60
2022-12-18T06:59:21.546Z,-5.60
2022-12-18T07:01:50.824Z,-5.70
2022-12-18T07:04:18.709Z,-5.70
2022-12-18T07:06:46.556Z,-5.60
2022-12-18T07:09:14.310Z,-5.60
2022-12-18T07:11:42.689Z,-5.60
2022-12-18T07:14:10.406Z,-5.60
2022-12-18T07:16:38.191Z,-5.70
2022-12-18T07:19:07.323Z,-5.70
2022-12-18T07:21:35.089Z,-5.60
2022-12-18T07:24:02.897Z,-5.60
2022-12-18T07:26:30.720Z,-5.60
2022-12-18T07:28:59.412Z,-5.60
2022-12-18T07:31:27.901Z,-5.60
2022-12-18T07:33:56.190Z,-5.80
2022-12-18T07:36:28.072Z,-5.80
2022-12-18T07:38:56.943Z,-5.80
2022-12-18T07:41:24.787Z,-5.90
2022-12-18T07:43:52.550Z,-5.90
2022-12-18T07:46:20.639Z,-5.90
2022-12-18T07:48:50.062Z,-5.90
2022-12-18T07:51:19.081Z,-5.90
2022-12-18T07:53:49.454Z,-5.80
2022-12-18T07:56:28.972Z,-5.80
2022-12-18T07:58:58.017Z,-5.80
2022-12-18T08:01:26.006Z,-5.80
2022-12-18T08:03:54.068Z,-5.90
2022-12-18T08:06:23.970Z,-5.90
2022-12-18T08:08:54.631Z,-5.80
2022-12-18T08:11:23.275Z,-5.80
2022-12-18T08:13:51.291Z,-5.80
2022-12-18T08:16:20.052Z,-5.70
2022-12-18T08:18:49.606Z,-5.60
2022-12-18T08:21:21.936Z,-5.50
2022-12-18T08:23:51.508Z,-5.40
2022-12-18T08:26:21.337Z,-5.30
2022-12-18T08:28:50.025Z,-5.20
2022-12-18T08:31:18.710Z,-5.20
2022-12-18T08:33:46.636Z,-5.10
2022-12-18T08:36:14.775Z,-5.00
2022-12-18T08:38:42.518Z,-4.90
2022-12-18T08:41:13.889Z,-5.00
2022-12-18T08:44:00.943Z,-4.90
2022-12-18T08:46:34.864Z,-4.80
2022-12-18T08:49:02.733Z,-4.60
2022-12-18T08:51:31.599Z,-4.60
2022-12-18T08:53:59.900Z,-4.40
2022-12-18T08:56:27.757Z,-4.40
2022-12-18T08:58:57.615Z,-4.30
2022-12-18T09:01:26.405Z,-4.30
2022-12-18T09:03:54.592Z,-4.20
2022-12-18T09:06:24.062Z,-4.20
2022-12-18T09:08:52.000Z,-4.20
2022-12-18T09:11:23.426Z,-4.20
2022-12-18T09:13:51.281Z,-4.10
2022-12-18T09:16:21.506Z,-4.00
2022-12-18T09:18:50.502Z,-3.90
2022-12-18T09:21:20.314Z,-3.70
2022-12-18T09:26:22.150Z,-3.40
2022-12-18T09:28:50.285Z,-3.20
2022-12-18T09:31:20.475Z,-3.20
2022-12-18T09:33:48.728Z,-3.10
2022-12-18T09:36:18.529Z,-3.10
2022-12-18T09:38:46.708Z,-3.10
2022-12-18T09:41:35.590Z,-3.20
2022-12-18T09:44:07.436Z,-3.20
2022-12-18T09:46:39.964Z,-3.20
2022-12-18T09:49:15.392Z,-3.20
2022-12-18T09:51:46.968Z,-3.30
2022-12-18T09:54:19.376Z,-3.10
2022-12-18T09:56:47.179Z,-3.00
2022-12-18T09:59:23.116Z,-2.90
2022-12-18T10:01:52.706Z,-2.90
2022-12-18T10:04:20.654Z,-3.00
2022-12-18T10:06:55.491Z,-3.10
2022-12-18T10:09:31.651Z,-3.20
2022-12-18T10:12:09.499Z,-3.30
2022-12-18T10:17:26.094Z,-3.10
2022-12-18T10:19:58.220Z,-3.10
2022-12-18T10:22:43.522Z,-3.00
2022-12-18T10:25:21.796Z,-2.90
2022-12-18T10:27:50.728Z,-3.00
2022-12-18T10:30:21.015Z,-3.00
2022-12-18T10:32:52.150Z,-3.00
2022-12-18T10:35:23.927Z,-3.00
2022-12-18T10:38:23.871Z,-3.00
2022-12-18T10:40:54.829Z,-3.00
2022-12-18T10:43:25.281Z,-3.10
2022-12-18T10:46:15.346Z,-3.10
2022-12-18T10:48:53.718Z,-3.00
2022-12-18T10:51:23.938Z,-3.10
2022-12-18T10:53:57.561Z,-3.10
2022-12-18T10:56:27.998Z,-2.90
2022-12-18T10:59:01.635Z,-2.80
2022-12-18T11:01:30.291Z,-2.70
2022-12-18T11:04:09.415Z,-1.40
2022-12-18T11:06:56.426Z,-2.70
2022-12-18T11:09:26.288Z,-2.60
2022-12-18T11:11:55.747Z,-2.50
2022-12-18T11:14:25.746Z,-2.50
2022-12-18T11:17:25.528Z,-2.40
2022-12-18T11:19:43.889Z,-2.40
2022-12-18T11:22:22.740Z,-2.40
2022-12-18T11:25:30.018Z,-2.50
2022-12-18T11:27:50.463Z,-2.50
2022-12-18T11:30:26.197Z,-2.80
2022-12-18T11:32:58.698Z,-2.60
2022-12-18T11:35:46.379Z,-2.00
2022-12-18T11:38:23.644Z,-1.90
2022-12-18T11:40:57.149Z,-2.70
2022-12-18T11:43:30.543Z,-2.70
2022-12-18T11:46:04.471Z,-4.80
2022-12-18T11:48:40.028Z,-2.80
2022-12-18T11:51:16.629Z,-2.80
2022-12-18T11:53:44.387Z,-2.80
2022-12-18T11:56:28.806Z,-2.80
2022-12-18T11:59:09.233Z,-2.70
2022-12-18T12:01:50.452Z,-2.60
2022-12-18T12:04:43.501Z,-2.50
2022-12-18T12:07:25.199Z,-2.50
2022-12-18T12:10:04.051Z,-2.40
2022-12-18T12:12:50.199Z,-2.40
2022-12-18T12:15:30.300Z,-2.20
2022-12-18T12:18:10.913Z,-2.20
2022-12-18T12:20:49.366Z,-2.20
2022-12-18T12:26:04.015Z,-2.30
2022-12-18T12:29:04.001Z,-2.30
2022-12-18T12:31:46.054Z,-2.00
2022-12-18T12:34:20.028Z,-2.00
2022-12-18T12:37:01.217Z,-1.90
2022-12-18T12:39:35.122Z,-1.90
2022-12-18T12:42:23.408Z,-1.80
2022-12-18T12:44:57.193Z,-1.80
2022-12-18T12:47:37.613Z,-1.80
2022-12-18T12:50:13.981Z,-1.90
2022-12-18T12:52:46.283Z,-1.90
2022-12-18T12:58:17.074Z,0.30
2022-12-18T13:00:54.644Z,-1.80
2022-12-18T13:03:37.072Z,-1.90
2022-12-18T13:06:11.645Z,-1.90
2022-12-18T13:08:55.709Z,-1.90
2022-12-18T13:11:59.807Z,-1.80
2022-12-18T13:13:43.779Z,-1.80
2022-12-18T13:14:43.377Z,-1.90
2022-12-18T13:17:32.897Z,-1.90
2022-12-18T13:20:12.992Z,-1.90
2022-12-18T13:22:46.210Z,-1.90
2022-12-18T13:25:32.888Z,-1.90
2022-12-18T13:28:06.859Z,-1.90
2022-12-18T13:30:54.102Z,-1.90
2022-12-18T13:36:40.052Z,-1.90
2022-12-18T13:39:28.917Z,-2.00
2022-12-18T13:42:55.858Z,-2.00
2022-12-18T13:46:02.519Z,-2.00
2022-12-18T13:48:33.694Z,-1.90
2022-12-18T13:51:06.203Z,-1.90
2022-12-18T13:53:44.196Z,-1.90
2022-12-18T13:56:17.748Z,-2.00
2022-12-18T13:58:45.553Z,-2.10
2022-12-18T14:01:25.926Z,-2.00
2022-12-18T14:04:10.346Z,-1.90
2022-12-18T14:06:38.667Z,-1.90
2022-12-18T14:09:06.553Z,-1.90
2022-12-18T14:11:37.857Z,-1.90
2022-12-18T14:14:09.113Z,-1.90
2022-12-18T14:16:43.229Z,-2.00
2022-12-18T14:19:16.269Z,-0.40
2022-12-18T14:21:48.908Z,-1.90
2022-12-18T14:24:18.988Z,-2.00
2022-12-18T14:26:48.472Z,-2.00
2022-12-18T14:29:24.584Z,0.10
2022-12-18T14:32:17.019Z,-2.10
2022-12-18T14:34:46.360Z,-1.90
2022-12-18T14:37:16.239Z,-1.90
2022-12-18T14:39:59.013Z,-1.90
2022-12-18T14:42:29.123Z,-1.90
2022-12-18T14:45:41.405Z,-1.90
2022-12-18T14:48:23.043Z,-1.90
2022-12-18T14:51:01.033Z,-1.90
2022-12-18T14:53:37.514Z,-1.90
2022-12-18T14:56:14.268Z,-1.80
2022-12-18T14:58:47.801Z,-1.80
2022-12-18T15:01:28.348Z,-1.70
2022-12-18T15:03:59.376Z,-1.70
2022-12-18T15:06:31.465Z,-1.80
2022-12-18T15:09:00.248Z,-1.80
2022-12-18T15:14:25.318Z,-1.90
2022-12-18T15:16:55.017Z,-1.90
2022-12-18T15:19:29.129Z,-1.90
2022-12-18T15:22:05.907Z,-1.90
2022-12-18T15:24:34.898Z,-1.90
2022-12-18T15:29:31.503Z,-1.90
2022-12-18T15:32:04.943Z,-1.90
2022-12-18T15:34:35.678Z,-1.90
2022-12-18T15:37:03.469Z,-1.90
2022-12-18T15:39:31.311Z,-1.90
2022-12-18T15:44:41.321Z,-1.80
2022-12-18T15:47:14.291Z,-1.70
2022-12-18T15:49:43.467Z,-1.70
2022-12-18T15:52:27.331Z,-1.70
2022-12-18T15:55:12.709Z,-1.70
2022-12-18T15:57:40.484Z,-1.70
2022-12-18T16:00:13.630Z,-1.60
2022-12-18T16:02:41.788Z,-1.60
2022-12-18T16:05:17.875Z,-1.60
2022-12-18T16:07:45.875Z,-1.50
2022-12-18T16:10:14.113Z,-1.50
2022-12-18T16:12:43.188Z,-1.40
2022-12-18T16:15:15.275Z,-1.30
2022-12-18T16:17:45.007Z,-1.40
2022-12-18T16:20:17.894Z,-1.20
2022-12-18T16:22:47.028Z,-1.20
2022-12-18T16:25:24.430Z,-1.10
2022-12-18T16:27:53.002Z,-1.10
2022-12-18T16:30:22.536Z,-1.10
2022-12-18T16:32:50.571Z,-1.00
2022-12-18T16:37:47.872Z,-1.00
2022-12-18T16:40:17.704Z,-0.90
2022-12-18T16:42:47.204Z,-1.00
2022-12-18T16:45:16.603Z,-1.10
2022-12-18T16:47:44.340Z,-1.10
2022-12-18T16:50:12.495Z,-1.00
2022-12-18T16:52:41.835Z,-1.00
2022-12-18T16:55:10.842Z,-0.80
2022-12-18T16:57:38.665Z,-0.80
2022-12-18T17:00:08.009Z,-0.70
2022-12-18T17:02:36.074Z,-0.70
2022-12-18T17:05:04.116Z,-0.60
2022-12-18T17:07:32.124Z,-0.60
2022-12-18T17:10:01.355Z,-0.50
2022-12-18T17:12:29.222Z,-0.50
2022-12-18T17:14:57.057Z,-0.40
2022-12-18T17:17:24.846Z,-0.40
2022-12-18T17:19:53.659Z,-0.40
2022-12-18T17:22:23.002Z,-0.40
2022-12-18T17:24:50.850Z,-0.30
2022-12-18T17:27:19.971Z,-0.30
2022-12-18T17:32:17.333Z,-0.20
2022-12-18T17:34:45.120Z,-0.20
2022-12-18T17:37:12.984Z,-0.20
2022-12-18T17:42:11.496Z,-1.50
2022-12-18T17:44:45.186Z,-0.20
2022-12-18T17:47:13.532Z,-0.10
2022-12-18T17:49:42.390Z,-0.10
2022-12-18T17:52:10.867Z,-0.20
2022-12-18T17:54:41.338Z,-0.10
2022-12-18T17:57:09.289Z,-0.10
2022-12-18T17:59:37.120Z,-0.10
2022-12-18T18:02:06.393Z,-0.10
2022-12-18T18:04:34.462Z,-0.10
2022-12-18T18:07:02.447Z,-0.20
2022-12-18T18:09:30.209Z,-0.20
2022-12-18T18:12:15.377Z,-0.30
2022-12-18T18:14:43.190Z,-0.30
2022-12-18T18:17:12.682Z,-0.30
2022-12-18T18:19:42.017Z,-0.40
2022-12-18T18:22:11.367Z,-0.40
2022-12-18T18:24:39.234Z,-0.40
2022-12-18T18:27:07.043Z,-0.50
2022-12-18T18:29:34.832Z,-0.50
2022-12-18T18:32:02.999Z,-0.60
2022-12-18T18:34:33.869Z,-0.60
2022-12-18T18:37:02.975Z,-0.60
2022-12-18T18:39:31.064Z,-0.60
2022-12-18T18:41:59.322Z,-0.60
2022-12-18T18:44:27.381Z,-0.60
2022-12-18T18:46:55.931Z,-0.60
2022-12-18T18:49:26.926Z,-0.70
2022-12-18T18:51:56.915Z,-0.70
2022-12-18T18:54:26.354Z,-0.70
2022-12-18T18:59:42.413Z,-0.80
2022-12-18T19:02:12.467Z,-0.80
2022-12-18T19:04:45.672Z,-0.80
2022-12-18T19:07:22.537Z,-0.90
2022-12-18T19:10:04.601Z,-0.90
2022-12-18T19:15:19.384Z,-1.00
2022-12-18T19:17:47.965Z,-1.00
2022-12-18T19:20:16.474Z,-0.90
2022-12-18T19:22:46.095Z,-1.00
2022-12-18T19:25:25.776Z,-1.00
2022-12-18T19:28:05.356Z,-1.00
2022-12-18T19:30:38.907Z,-1.00
2022-12-18T19:33:34.081Z,-0.90
2022-12-18T19:35:54.659Z,-1.00
2022-12-18T19:41:05.729Z,-1.00
2022-12-18T19:43:35.882Z,-0.90
2022-12-18T19:46:04.487Z,-0.90
2022-12-18T19:48:33.129Z,-0.90
2022-12-18T19:51:06.749Z,-0.90
2022-12-18T19:53:36.407Z,-0.90
2022-12-18T19:56:07.281Z,-1.00
2022-12-18T19:58:35.158Z,-1.00
2022-12-18T20:03:33.730Z,-1.00
2022-12-18T20:06:09.943Z,-1.00
2022-12-18T20:08:39.271Z,-0.90
2022-12-18T20:11:07.613Z,-0.90
2022-12-18T20:13:35.478Z,-0.90
2022-12-18T20:16:03.305Z,-0.90
2022-12-18T20:18:31.173Z,-0.90
2022-12-18T20:20:59.049Z,-0.80
2022-12-18T20:23:28.823Z,-0.80
2022-12-18T20:26:00.280Z,-0.90
2022-12-18T20:28:28.297Z,-0.90
2022-12-18T20:31:00.565Z,-0.90
2022-12-18T20:33:28.585Z,-0.90
2022-12-18T20:36:01.403Z,-0.90
2022-12-18T20:38:29.959Z,-0.90
2022-12-18T20:41:02.227Z,-0.90
2022-12-18T20:43:30.112Z,-0.80
2022-12-18T20:46:03.041Z,-0.80
2022-12-18T20:48:31.002Z,-0.70
2022-12-18T20:51:00.086Z,-0.70
2022-12-18T20:53:31.930Z,-0.70
2022-12-18T20:56:02.128Z,-0.70
2022-12-18T20:58:29.903Z,-0.80
2022-12-18T21:01:06.261Z,-0.80
2022-12-18T21:06:02.704Z,-0.80
2022-12-18T21:08:30.768Z,-0.80
2022-12-18T21:10:59.239Z,-0.70
2022-12-18T21:13:28.865Z,-0.70
2022-12-18T21:15:58.828Z,-0.80
2022-12-18T21:18:26.556Z,-0.70
2022-12-18T21:20:55.925Z,-0.80
2022-12-18T21:23:23.750Z,-0.70
2022-12-18T21:25:55.510Z,-0.70
2022-12-18T21:28:23.925Z,-0.70
2022-12-18T21:30:53.241Z,-0.80
2022-12-18T21:33:21.096Z,-0.80
2022-12-18T21:35:48.979Z,-0.80
2022-12-18T21:38:16.745Z,-0.80
2022-12-18T21:40:44.569Z,-0.80
2022-12-18T21:43:29.879Z,-0.80
2022-12-18T21:45:59.033Z,-1.80
2022-12-18T21:48:27.563Z,-0.90
2022-12-18T21:50:55.310Z,-0.90
2022-12-18T21:53:23.036Z,-0.80
2022-12-18T21:55:58.784Z,-0.90
2022-12-18T21:58:27.149Z,-0.40
2022-12-18T22:00:54.967Z,-0.90
2022-12-18T22:03:24.225Z,-0.90
2022-12-18T22:06:00.793Z,-0.90
2022-12-18T22:08:42.080Z,-0.90
2022-12-18T22:11:13.559Z,-0.90
2022-12-18T22:13:41.396Z,-0.80
2022-12-18T22:16:09.238Z,-0.90
2022-12-18T22:21:07.240Z,-0.90
2022-12-18T22:23:35.023Z,-0.90
2022-12-18T22:26:05.939Z,-0.90
2022-12-18T22:28:51.113Z,-0.90
2022-12-18T22:31:18.882Z,-0.90
2022-12-18T22:33:48.204Z,-0.90
2022-12-18T22:36:15.977Z,-0.80
2022-12-18T22:38:47.276Z,-0.70
2022-12-18T22:41:15.296Z,-0.80
2022-12-18T22:43:43.041Z,-0.80
2022-12-18T22:46:13.850Z,-0.70
2022-12-18T22:48:41.587Z,-0.70
2022-12-18T22:51:15.923Z,-0.70
2022-12-18T22:53:44.347Z,-0.70
2022-12-18T22:58:49.970Z,-0.80
2022-12-18T23:01:21.777Z,-0.80
2022-12-18T23:03:50.215Z,-0.70
2022-12-18T23:08:52.968Z,-0.70
2022-12-18T23:11:23.728Z,-0.70
2022-12-18T23:13:51.587Z,-0.70
2022-12-18T23:18:55.150Z,-0.70
2022-12-18T23:21:25.122Z,-0.70
2022-12-18T23:23:53.587Z,-0.70
2022-12-18T23:26:23.276Z,-0.70
2022-12-18T23:28:52.648Z,-0.70
2022-12-18T23:31:23.411Z,-0.60
2022-12-18T23:33:52.732Z,-0.60
2022-12-18T23:36:21.267Z,-0.60
2022-12-18T23:38:51.619Z,-0.60
2022-12-18T23:41:21.617Z,0.10
2022-12-18T23:43:50.142Z,-0.50
2022-12-18T23:46:21.330Z,-0.50
2022-12-18T23:48:49.378Z,-0.50
2022-12-18T23:51:18.759Z,-0.40
2022-12-18T23:53:46.810Z,-0.40
2022-12-18T23:56:15.966Z,-0.40
2022-12-18T23:58:44.461Z,-0.40
